createdAt,value
2022-09-13T00:18:09.742Z,14.5
2022-09-13T00:29:19.688Z,14.5
2022-09-13T00:40:35.124Z,14
2022-09-13T00:46:06.165Z,13.7
2022-09-13T00:51:45.099Z,13.6
2022-09-13T00:57:04.415Z,13.4
2022-09-13T01:02:33.598Z,13.6
2022-09-13T01:08:16.764Z,13.9
2022-09-13T01:13:53.157Z,13.8
2022-09-13T01:19:31.192Z,13.9
2022-09-13T01:24:53.938Z,14.1
2022-09-13T01:30:31.020Z,14.2
2022-09-13T01:36:04.944Z,14
2022-09-13T01:41:51.067Z,13.7
2022-09-13T01:47:09.781Z,13.8
2022-09-13T01:53:01.610Z,13.6
2022-09-13T01:58:14.592Z,13.6
2022-09-13T02:03:43.997Z,13.6
2022-09-13T02:09:21.394Z,13.6
2022-09-13T02:14:58.405Z,13.5
2022-09-13T02:20:52.228Z,13.3
2022-09-13T02:26:05.527Z,13.7
2022-09-13T02:31:55.520Z,13.7
2022-09-13T02:37:23.784Z,13.6
2022-09-13T02:42:53.216Z,13.5
2022-09-13T02:48:25.117Z,13
2022-09-13T02:53:59.990Z,13.4
2022-09-13T02:59:35.603Z,13.5
2022-09-13T03:05:08.931Z,13.5
2022-09-13T03:10:48.104Z,13.1
2022-09-13T03:16:19.861Z,13.1
2022-09-13T03:21:45.693Z,13
2022-09-13T03:27:10.932Z,13.1
2022-09-13T03:33:03.101Z,12.9
2022-09-13T03:38:34.439Z,12.9
2022-09-13T03:43:54.911Z,13.1
2022-09-13T03:49:37.071Z,13
2022-09-13T03:55:24.282Z,12.8
2022-09-13T04:00:45.631Z,12.7
2022-09-13T04:06:08.062Z,12.5
2022-09-13T04:11:52.446Z,12.7
2022-09-13T04:17:15.156Z,12.8
2022-09-13T04:22:55.074Z,12.8
2022-09-13T04:28:36.550Z,12.7
2022-09-13T04:34:25.398Z,12.7
2022-09-13T04:39:49.685Z,12.8
2022-09-13T04:45:32.045Z,12.8
2022-09-13T04:50:43.080Z,12.7
2022-09-13T05:35:34.423Z,13.1
2022-09-13T05:40:55.785Z,13.5
2022-09-13T05:51:59.381Z,13.3
2022-09-13T05:57:38.261Z,13.7
2022-09-13T06:03:18.245Z,14
2022-09-13T06:08:42.438Z,14.1
2022-09-13T06:14:25.907Z,14.6
2022-09-13T06:20:12.262Z,15.3
2022-09-13T06:25:29.109Z,15.8
2022-09-13T06:31:01.585Z,16.4
2022-09-13T06:36:41.857Z,16.6
2022-09-13T06:42:31.221Z,17
2022-09-13T06:47:43.389Z,16.7
2022-09-13T06:53:44.913Z,16.5
2022-09-13T06:58:58.265Z,16.3
2022-09-13T07:04:28.712Z,16.6
2022-09-13T07:10:26.340Z,16.2
2022-09-13T07:15:49.496Z,16.1
2022-09-13T07:21:31.833Z,16.1
2022-09-13T07:27:05.711Z,16.1
2022-09-13T07:32:45.729Z,16.5
2022-09-13T07:38:14.447Z,17.5
2022-09-13T07:43:28.243Z,17.7
2022-09-13T07:49:14.273Z,18.7
2022-09-13T07:55:03.627Z,19.5
2022-09-13T08:00:14.198Z,19
2022-09-13T08:06:13.380Z,18.7
2022-09-13T08:11:43.308Z,18.4
2022-09-13T08:17:11.432Z,19.3
2022-09-13T08:22:44.612Z,21.1
2022-09-13T08:28:28.258Z,20
2022-09-13T08:34:05.409Z,20.8
2022-09-13T08:39:29.308Z,21.1
2022-09-13T08:45:08.000Z,21
2022-09-13T08:50:41.729Z,21.2
2022-09-13T08:56:23.948Z,22.2
2022-09-13T09:02:07.823Z,21.4
2022-09-13T09:07:51.255Z,22.1
2022-09-13T09:13:10.296Z,22.1
2022-09-13T09:18:55.939Z,21.5
2022-09-13T09:24:48.213Z,21.3
2022-09-13T09:30:20.534Z,21.5
2022-09-13T09:35:50.533Z,21.4
2022-09-13T09:41:22.241Z,22.5
2022-09-13T09:46:56.187Z,21.6
2022-09-13T09:52:56.199Z,21.9
2022-09-13T09:58:29.256Z,22.3
2022-09-13T10:09:30.000Z,22.5
2022-09-13T10:43:22.037Z,24.6
2022-09-13T10:49:18.640Z,23.9
2022-09-13T11:06:08.601Z,23.9
2022-09-13T11:11:32.697Z,24.4
2022-09-13T11:56:41.191Z,25
2022-09-13T12:13:48.287Z,25.4
2022-09-13T12:19:26.378Z,24.9
2022-09-13T12:36:12.854Z,24.4
2022-09-13T12:42:12.965Z,24.7
2022-09-13T12:59:10.564Z,24.4
2022-09-13T13:10:09.545Z,24.3
2022-09-13T13:15:53.392Z,24
2022-09-13T13:21:29.348Z,24.9
2022-09-13T13:26:57.720Z,24.4
2022-09-13T13:32:45.458Z,24.3
2022-09-13T13:44:04.996Z,24.5
2022-09-13T13:49:36.998Z,24.6
2022-09-13T13:55:22.503Z,24.2
2022-09-13T14:00:46.456Z,24.3
2022-09-13T14:06:15.611Z,24.6
2022-09-13T14:11:58.886Z,24.5
2022-09-13T14:17:28.586Z,24.5
2022-09-13T14:23:20.131Z,24.5
2022-09-13T14:29:07.071Z,25.4
2022-09-13T14:34:34.850Z,25.6
2022-09-13T14:40:10.912Z,25.3
2022-09-13T14:45:43.141Z,25.8
2022-09-13T14:51:16.942Z,26.2
2022-09-13T14:57:07.899Z,26.2
2022-09-13T15:02:39.984Z,25.4
2022-09-13T15:08:23.450Z,25.4
2022-09-13T15:13:48.699Z,25.2
2022-09-13T15:19:38.941Z,24.8
2022-09-13T15:25:13.591Z,24.8
2022-09-13T15:30:53.933Z,24.5
2022-09-13T15:36:38.811Z,24.3
2022-09-13T15:42:12.518Z,24.4
2022-09-13T15:53:17.649Z,24.5
2022-09-13T15:59:04.002Z,24.8
2022-09-13T16:04:32.634Z,24.7
2022-09-13T16:15:31.806Z,24.5
2022-09-13T16:21:15.338Z,24.4
2022-09-13T16:27:06.381Z,24.4
2022-09-13T16:32:19.847Z,24.2
2022-09-13T16:37:55.990Z,24
2022-09-13T16:43:49.948Z,23.2
2022-09-13T16:55:07.930Z,23.4
2022-09-13T17:00:34.036Z,23.3
2022-09-13T17:06:07.564Z,23.2
2022-09-13T17:11:50.994Z,23.2
2022-09-13T17:17:08.122Z,22.5
2022-09-13T17:23:06.340Z,22.6
2022-09-13T17:28:20.090Z,22.4
2022-09-13T17:33:50.216Z,22.3
2022-09-13T17:39:26.398Z,22.2
2022-09-13T17:45:21.726Z,22.1
